sensor_id;sensor_type;location;lat;lon;timestamp;temperature;humidity
16976;DHT22;8604;48.148;-1.786;2024-02-23T00:01:07;5.60;99.90
16976;DHT22;8604;48.148;-1.786;2024-02-23T00:03:35;5.50;99.90
16976;DHT22;8604;48.148;-1.786;2024-02-23T00:06:04;5.60;99.90
16976;DHT22;8604;48.148;-1.786;2024-02-23T00:08:33;5.60;99.90
16976;DHT22;8604;48.148;-1.786;2024-02-23T00:11:01;5.60;99.90
16976;DHT22;8604;48.148;-1.786;2024-02-23T00:13:31;5.50;99.90
16976;DHT22;8604;48.148;-1.786;2024-02-23T00:16:00;5.50;99.90
16976;DHT22;8604;48.148;-1.786;2024-02-23T00:18:28;5.50;99.90
16976;DHT22;8604;48.148;-1.786;2024-02-23T00:20:56;5.50;99.90
16976;DHT22;8604;48.148;-1.786;2024-02-23T00:23:25;5.60;99.90
16976;DHT22;8604;48.148;-1.786;2024-02-23T00:25:53;5.50;99.90
16976;DHT22;8604;48.148;-1.786;2024-02-23T00:28:22;5.60;99.90
16976;DHT22;8604;48.148;-1.786;2024-02-23T00:30:51;5.60;99.90
16976;DHT22;8604;48.148;-1.786;2024-02-23T00:33:20;5.60;99.90
16976;DHT22;8604;48.148;-1.786;2024-02-23T00:35:48;5.60;99.90
16976;DHT22;8604;48.148;-1.786;2024-02-23T00:38:16;5.60;99.90
16976;DHT22;8604;48.148;-1.786;2024-02-23T00:40:44;5.60;99.90
16976;DHT22;8604;48.148;-1.786;2024-02-23T00:43:13;5.60;99.90
16976;DHT22;8604;48.148;-1.786;2024-02-23T00:45:41;5.60;99.90
16976;DHT22;8604;48.148;-1.786;2024-02-23T00:48:11;5.70;99.90
16976;DHT22;8604;48.148;-1.786;2024-02-23T00:50:41;5.70;99.90
16976;DHT22;8604;48.148;-1.786;2024-02-23T00:53:09;5.70;99.90
16976;DHT22;8604;48.148;-1.786;2024-02-23T00:55:37;5.70;99.90
16976;DHT22;8604;48.148;-1.786;2024-02-23T00:58:05;5.70;99.90
16976;DHT22;8604;48.148;-1.786;2024-02-23T01:00:34;5.70;99.90
16976;DHT22;8604;48.148;-1.786;2024-02-23T01:03:02;5.70;99.90
16976;DHT22;8604;48.148;-1.786;2024-02-23T01:05:32;5.70;99.90
16976;DHT22;8604;48.148;-1.786;2024-02-23T01:08:01;5.70;99.90
16976;DHT22;8604;48.148;-1.786;2024-02-23T01:10:29;5.70;99.90
16976;DHT22;8604;48.148;-1.786;2024-02-23T01:12:57;5.70;99.90
16976;DHT22;8604;48.148;-1.786;2024-02-23T01:15:26;5.70;99.90
16976;DHT22;8604;48.148;-1.786;2024-02-23T01:17:54;5.70;99.90
16976;DHT22;8604;48.148;-1.786;2024-02-23T01:20:23;5.70;99.90
16976;DHT22;8604;48.148;-1.786;2024-02-23T01:22:53;5.70;99.90
16976;DHT22;8604;48.148;-1.786;2024-02-23T01:25:21;5.70;99.90
16976;DHT22;8604;48.148;-1.786;2024-02-23T01:27:50;5.70;99.90
16976;DHT22;8604;48.148;-1.786;2024-02-23T01:30:18;5.70;99.90
16976;DHT22;8604;48.148;-1.786;2024-02-23T01:32:47;5.70;99.90
16976;DHT22;8604;48.148;-1.786;2024-02-23T01:35:17;5.70;99.90
16976;DHT22;8604;48.148;-1.786;2024-02-23T01:37:46;5.70;99.90
16976;DHT22;8604;48.148;-1.786;2024-02-23T01:40:15;5.70;99.90
16976;DHT22;8604;48.148;-1.786;2024-02-23T01:42:43;5.70;99.90
16976;DHT22;8604;48.148;-1.786;2024-02-23T01:45:12;5.70;99.90
16976;DHT22;8604;48.148;-1.786;2024-02-23T01:47:40;5.70;99.90
16976;DHT22;8604;48.148;-1.786;2024-02-23T01:50:09;5.70;99.90
16976;DHT22;8604;48.148;-1.786;2024-02-23T01:52:39;5.70;99.90
16976;DHT22;8604;48.148;-1.786;2024-02-23T01:55:08;5.70;99.90
16976;DHT22;8604;48.148;-1.786;2024-02-23T01:57:38;5.80;99.90
16976;DHT22;8604;48.148;-1.786;2024-02-23T02:00:17;5.80;99.90
16976;DHT22;8604;48.148;-1.786;2024-02-23T02:02:52;5.80;99.90
16976;DHT22;8604;48.148;-1.786;2024-02-23T02:05:21;5.80;99.90
16976;DHT22;8604;48.148;-1.786;2024-02-23T02:07:51;5.80;99.90
16976;DHT22;8604;48.148;-1.786;2024-02-23T02:10:21;5.80;99.90
16976;DHT22;8604;48.148;-1.786;2024-02-23T02:12:51;5.80;99.90
16976;DHT22;8604;48.148;-1.786;2024-02-23T02:15:19;5.80;99.90
16976;DHT22;8604;48.148;-1.786;2024-02-23T02:17:49;5.80;99.90
16976;DHT22;8604;48.148;-1.786;2024-02-23T02:20:18;5.80;99.90
16976;DHT22;8604;48.148;-1.786;2024-02-23T02:22:51;5.80;99.90
16976;DHT22;8604;48.148;-1.786;2024-02-23T02:25:20;5.80;99.90
16976;DHT22;8604;48.148;-1.786;2024-02-23T02:27:48;5.80;99.90
16976;DHT22;8604;48.148;-1.786;2024-02-23T02:30:18;5.70;99.90
16976;DHT22;8604;48.148;-1.786;2024-02-23T02:32:46;5.70;99.90
16976;DHT22;8604;48.148;-1.786;2024-02-23T02:35:15;5.70;99.90
16976;DHT22;8604;48.148;-1.786;2024-02-23T02:37:43;5.70;99.90
16976;DHT22;8604;48.148;-1.786;2024-02-23T02:40:12;5.70;99.90
16976;DHT22;8604;48.148;-1.786;2024-02-23T02:42:40;5.70;99.90
16976;DHT22;8604;48.148;-1.786;2024-02-23T02:45:08;5.60;99.90
16976;DHT22;8604;48.148;-1.786;2024-02-23T02:47:38;5.60;99.90
16976;DHT22;8604;48.148;-1.786;2024-02-23T02:50:07;5.60;99.90
16976;DHT22;8604;48.148;-1.786;2024-02-23T02:52:36;5.60;99.90
16976;DHT22;8604;48.148;-1.786;2024-02-23T02:55:05;5.60;99.90
16976;DHT22;8604;48.148;-1.786;2024-02-23T02:57:33;5.60;99.90
16976;DHT22;8604;48.148;-1.786;2024-02-23T03:00:10;5.60;99.90
16976;DHT22;8604;48.148;-1.786;2024-02-23T03:02:41;5.60;99.90
16976;DHT22;8604;48.148;-1.786;2024-02-23T03:05:09;5.60;99.90
16976;DHT22;8604;48.148;-1.786;2024-02-23T03:07:37;5.60;99.90
16976;DHT22;8604;48.148;-1.786;2024-02-23T03:10:06;5.60;99.90
16976;DHT22;8604;48.148;-1.786;2024-02-23T03:12:35;5.50;99.90
16976;DHT22;8604;48.148;-1.786;2024-02-23T03:15:04;5.50;99.90
16976;DHT22;8604;48.148;-1.786;2024-02-23T03:17:33;5.50;99.90
16976;DHT22;8604;48.148;-1.786;2024-02-23T03:20:04;5.50;99.90
16976;DHT22;8604;48.148;-1.786;2024-02-23T03:22:36;5.50;99.90
16976;DHT22;8604;48.148;-1.786;2024-02-23T03:25:05;5.50;99.90
16976;DHT22;8604;48.148;-1.786;2024-02-23T03:27:36;5.50;99.90
16976;DHT22;8604;48.148;-1.786;2024-02-23T03:30:06;5.50;99.90
16976;DHT22;8604;48.148;-1.786;2024-02-23T03:32:36;5.50;99.90
16976;DHT22;8604;48.148;-1.786;2024-02-23T03:35:08;5.50;99.90
16976;DHT22;8604;48.148;-1.786;2024-02-23T03:37:36;5.50;99.90
16976;DHT22;8604;48.148;-1.786;2024-02-23T03:40:06;5.50;99.90
16976;DHT22;8604;48.148;-1.786;2024-02-23T03:42:35;5.50;99.90
16976;DHT22;8604;48.148;-1.786;2024-02-23T03:45:04;5.50;99.90
16976;DHT22;8604;48.148;-1.786;2024-02-23T03:47:33;5.40;99.90
16976;DHT22;8604;48.148;-1.786;2024-02-23T03:50:02;5.40;99.90
16976;DHT22;8604;48.148;-1.786;2024-02-23T03:52:32;5.40;99.90
16976;DHT22;8604;48.148;-1.786;2024-02-23T03:55:00;5.40;99.90
16976;DHT22;8604;48.148;-1.786;2024-02-23T03:57:30;5.40;99.90
16976;DHT22;8604;48.148;-1.786;2024-02-23T03:59:59;5.40;99.90
16976;DHT22;8604;48.148;-1.786;2024-02-23T04:02:38;5.40;99.90
16976;DHT22;8604;48.148;-1.786;2024-02-23T04:05:07;5.40;99.90
16976;DHT22;8604;48.148;-1.786;2024-02-23T04:07:37;5.40;99.90
16976;DHT22;8604;48.148;-1.786;2024-02-23T04:10:07;5.40;99.90
16976;DHT22;8604;48.148;-1.786;2024-02-23T04:12:35;5.40;99.90
16976;DHT22;8604;48.148;-1.786;2024-02-23T04:15:04;5.40;99.90
16976;DHT22;8604;48.148;-1.786;2024-02-23T04:17:33;5.40;99.90
16976;DHT22;8604;48.148;-1.786;2024-02-23T04:20:05;5.40;99.90
16976;DHT22;8604;48.148;-1.786;2024-02-23T04:22:34;5.40;99.90
16976;DHT22;8604;48.148;-1.786;2024-02-23T04:25:04;5.40;99.90
16976;DHT22;8604;48.148;-1.786;2024-02-23T04:27:33;5.40;99.90
16976;DHT22;8604;48.148;-1.786;2024-02-23T04:30:01;5.40;99.90
16976;DHT22;8604;48.148;-1.786;2024-02-23T04:32:30;5.40;99.90
16976;DHT22;8604;48.148;-1.786;2024-02-23T04:34:58;5.40;99.90
16976;DHT22;8604;48.148;-1.786;2024-02-23T04:37:27;5.40;99.90
16976;DHT22;8604;48.148;-1.786;2024-02-23T04:39:55;5.40;99.90
16976;DHT22;8604;48.148;-1.786;2024-02-23T04:42:25;5.40;99.90
16976;DHT22;8604;48.148;-1.786;2024-02-23T04:44:53;5.40;99.90
16976;DHT22;8604;48.148;-1.786;2024-02-23T04:47:22;5.50;99.90
16976;DHT22;8604;48.148;-1.786;2024-02-23T04:49:50;5.50;99.90
16976;DHT22;8604;48.148;-1.786;2024-02-23T04:52:18;5.50;99.90
16976;DHT22;8604;48.148;-1.786;2024-02-23T04:54:47;5.50;99.90
16976;DHT22;8604;48.148;-1.786;2024-02-23T04:57:15;5.60;99.90
16976;DHT22;8604;48.148;-1.786;2024-02-23T04:59:45;5.60;99.90
16976;DHT22;8604;48.148;-1.786;2024-02-23T05:02:13;5.60;99.90
16976;DHT22;8604;48.148;-1.786;2024-02-23T05:04:42;5.70;99.90
16976;DHT22;8604;48.148;-1.786;2024-02-23T05:07:10;5.70;99.90
16976;DHT22;8604;48.148;-1.786;2024-02-23T05:09:38;5.60;99.90
16976;DHT22;8604;48.148;-1.786;2024-02-23T05:12:08;5.70;99.90
16976;DHT22;8604;48.148;-1.786;2024-02-23T05:14:37;5.70;99.90
16976;DHT22;8604;48.148;-1.786;2024-02-23T05:17:06;5.70;99.90
16976;DHT22;8604;48.148;-1.786;2024-02-23T05:19:35;5.60;99.90
16976;DHT22;8604;48.148;-1.786;2024-02-23T05:22:03;5.70;99.90
16976;DHT22;8604;48.148;-1.786;2024-02-23T05:24:32;5.60;99.90
16976;DHT22;8604;48.148;-1.786;2024-02-23T05:27:00;5.60;99.90
16976;DHT22;8604;48.148;-1.786;2024-02-23T05:29:30;5.60;99.90
16976;DHT22;8604;48.148;-1.786;2024-02-23T05:31:59;5.60;99.90
16976;DHT22;8604;48.148;-1.786;2024-02-23T05:34:29;5.60;99.90
16976;DHT22;8604;48.148;-1.786;2024-02-23T05:36:57;5.60;99.90
16976;DHT22;8604;48.148;-1.786;2024-02-23T05:39:26;5.60;99.90
16976;DHT22;8604;48.148;-1.786;2024-02-23T05:41:56;5.60;99.90
16976;DHT22;8604;48.148;-1.786;2024-02-23T05:44:26;5.60;99.90
16976;DHT22;8604;48.148;-1.786;2024-02-23T05:46:56;5.60;99.90
16976;DHT22;8604;48.148;-1.786;2024-02-23T05:49:24;5.60;99.90
16976;DHT22;8604;48.148;-1.786;2024-02-23T05:51:54;5.60;99.90
16976;DHT22;8604;48.148;-1.786;2024-02-23T05:54:23;5.60;99.90
16976;DHT22;8604;48.148;-1.786;2024-02-23T05:56:51;5.60;99.90
16976;DHT22;8604;48.148;-1.786;2024-02-23T05:59:20;5.60;99.90
16976;DHT22;8604;48.148;-1.786;2024-02-23T06:01:48;5.60;99.90
16976;DHT22;8604;48.148;-1.786;2024-02-23T06:04:19;5.60;99.90
16976;DHT22;8604;48.148;-1.786;2024-02-23T06:06:47;5.50;99.90
16976;DHT22;8604;48.148;-1.786;2024-02-23T06:09:17;5.50;99.90
16976;DHT22;8604;48.148;-1.786;2024-02-23T06:11:46;5.50;99.90
16976;DHT22;8604;48.148;-1.786;2024-02-23T06:14:14;5.50;99.90
16976;DHT22;8604;48.148;-1.786;2024-02-23T06:16:43;5.50;99.90
16976;DHT22;8604;48.148;-1.786;2024-02-23T06:19:11;5.40;99.90
16976;DHT22;8604;48.148;-1.786;2024-02-23T06:21:39;5.40;99.90
16976;DHT22;8604;48.148;-1.786;2024-02-23T06:24:08;5.40;99.90
16976;DHT22;8604;48.148;-1.786;2024-02-23T06:26:38;5.40;99.90
16976;DHT22;8604;48.148;-1.786;2024-02-23T06:29:06;5.40;99.90
16976;DHT22;8604;48.148;-1.786;2024-02-23T06:31:38;5.30;99.90
16976;DHT22;8604;48.148;-1.786;2024-02-23T06:34:06;5.30;99.90
16976;DHT22;8604;48.148;-1.786;2024-02-23T06:36:35;5.30;99.90
16976;DHT22;8604;48.148;-1.786;2024-02-23T06:39:04;5.30;99.90
16976;DHT22;8604;48.148;-1.786;2024-02-23T06:41:32;5.30;99.90
16976;DHT22;8604;48.148;-1.786;2024-02-23T06:44:02;5.30;99.90
16976;DHT22;8604;48.148;-1.786;2024-02-23T06:46:31;5.30;99.90
16976;DHT22;8604;48.148;-1.786;2024-02-23T06:48:59;5.20;99.90
16976;DHT22;8604;48.148;-1.786;2024-02-23T06:51:28;5.30;99.90
16976;DHT22;8604;48.148;-1.786;2024-02-23T06:53:56;5.30;99.90
16976;DHT22;8604;48.148;-1.786;2024-02-23T06:56:24;5.30;99.90
16976;DHT22;8604;48.148;-1.786;2024-02-23T06:58:53;5.20;99.90
16976;DHT22;8604;48.148;-1.786;2024-02-23T07:01:24;5.20;99.90
16976;DHT22;8604;48.148;-1.786;2024-02-23T07:03:55;5.20;99.90
16976;DHT22;8604;48.148;-1.786;2024-02-23T07:06:23;5.20;99.90
16976;DHT22;8604;48.148;-1.786;2024-02-23T07:08:52;5.20;99.90
16976;DHT22;8604;48.148;-1.786;2024-02-23T07:11:23;5.20;99.90
16976;DHT22;8604;48.148;-1.786;2024-02-23T07:13:52;5.20;99.90
16976;DHT22;8604;48.148;-1.786;2024-02-23T07:16:21;5.20;99.90
16976;DHT22;8604;48.148;-1.786;2024-02-23T07:18:50;5.20;99.90
16976;DHT22;8604;48.148;-1.786;2024-02-23T07:21:19;5.20;99.90
16976;DHT22;8604;48.148;-1.786;2024-02-23T07:23:50;5.20;99.90
16976;DHT22;8604;48.148;-1.786;2024-02-23T07:26:18;5.20;99.90
16976;DHT22;8604;48.148;-1.786;2024-02-23T07:28:49;5.20;99.90
16976;DHT22;8604;48.148;-1.786;2024-02-23T07:31:17;5.20;99.90
16976;DHT22;8604;48.148;-1.786;2024-02-23T07:33:45;5.30;99.90
16976;DHT22;8604;48.148;-1.786;2024-02-23T07:36:16;5.30;99.90
16976;DHT22;8604;48.148;-1.786;2024-02-23T07:38:50;5.30;99.90
16976;DHT22;8604;48.148;-1.786;2024-02-23T07:41:18;5.40;99.90
16976;DHT22;8604;48.148;-1.786;2024-02-23T07:43:49;5.40;99.90
16976;DHT22;8604;48.148;-1.786;2024-02-23T07:46:17;5.50;99.90
16976;DHT22;8604;48.148;-1.786;2024-02-23T07:48:46;5.50;99.90
16976;DHT22;8604;48.148;-1.786;2024-02-23T07:51:16;5.50;99.90
16976;DHT22;8604;48.148;-1.786;2024-02-23T07:53:46;5.60;99.90
16976;DHT22;8604;48.148;-1.786;2024-02-23T07:56:14;5.60;99.90
16976;DHT22;8604;48.148;-1.786;2024-02-23T07:58:44;5.60;99.90
16976;DHT22;8604;48.148;-1.786;2024-02-23T08:01:12;5.70;99.90
16976;DHT22;8604;48.148;-1.786;2024-02-23T08:03:42;5.70;99.90
16976;DHT22;8604;48.148;-1.786;2024-02-23T08:06:10;5.70;99.90
16976;DHT22;8604;48.148;-1.786;2024-02-23T08:08:41;5.80;99.90
16976;DHT22;8604;48.148;-1.786;2024-02-23T08:11:10;5.80;99.90
16976;DHT22;8604;48.148;-1.786;2024-02-23T08:13:38;5.80;99.90
16976;DHT22;8604;48.148;-1.786;2024-02-23T08:16:07;5.80;99.90
16976;DHT22;8604;48.148;-1.786;2024-02-23T08:18:36;5.90;99.90
16976;DHT22;8604;48.148;-1.786;2024-02-23T08:21:04;6.00;99.90
16976;DHT22;8604;48.148;-1.786;2024-02-23T08:23:34;6.00;99.90
16976;DHT22;8604;48.148;-1.786;2024-02-23T08:26:05;6.10;99.90
16976;DHT22;8604;48.148;-1.786;2024-02-23T08:28:34;6.20;99.90
16976;DHT22;8604;48.148;-1.786;2024-02-23T08:31:02;6.30;99.90
16976;DHT22;8604;48.148;-1.786;2024-02-23T08:33:31;6.40;99.90
16976;DHT22;8604;48.148;-1.786;2024-02-23T08:36:00;6.50;99.90
16976;DHT22;8604;48.148;-1.786;2024-02-23T08:38:28;6.60;99.90
16976;DHT22;8604;48.148;-1.786;2024-02-23T08:40:57;6.80;99.90
16976;DHT22;8604;48.148;-1.786;2024-02-23T08:43:27;6.80;99.90
16976;DHT22;8604;48.148;-1.786;2024-02-23T08:45:55;7.00;99.90
16976;DHT22;8604;48.148;-1.786;2024-02-23T08:48:29;7.00;99.90
16976;DHT22;8604;48.148;-1.786;2024-02-23T08:50:58;7.10;99.90
16976;DHT22;8604;48.148;-1.786;2024-02-23T08:53:26;7.20;99.90
16976;DHT22;8604;48.148;-1.786;2024-02-23T08:55:55;7.30;99.90
16976;DHT22;8604;48.148;-1.786;2024-02-23T08:58:23;7.40;99.90
16976;DHT22;8604;48.148;-1.786;2024-02-23T09:00:53;7.60;99.90
16976;DHT22;8604;48.148;-1.786;2024-02-23T09:03:21;7.70;99.90
16976;DHT22;8604;48.148;-1.786;2024-02-23T09:05:51;7.90;99.90
16976;DHT22;8604;48.148;-1.786;2024-02-23T09:08:20;8.10;99.90
16976;DHT22;8604;48.148;-1.786;2024-02-23T09:10:48;8.20;99.90
16976;DHT22;8604;48.148;-1.786;2024-02-23T09:13:17;8.30;99.90
16976;DHT22;8604;48.148;-1.786;2024-02-23T09:15:45;8.30;99.90
16976;DHT22;8604;48.148;-1.786;2024-02-23T09:18:15;8.40;99.90
16976;DHT22;8604;48.148;-1.786;2024-02-23T09:20:43;8.40;99.90
16976;DHT22;8604;48.148;-1.786;2024-02-23T09:23:12;8.40;99.90
16976;DHT22;8604;48.148;-1.786;2024-02-23T09:25:40;8.30;99.90
16976;DHT22;8604;48.148;-1.786;2024-02-23T09:28:10;8.20;99.90
16976;DHT22;8604;48.148;-1.786;2024-02-23T09:30:39;8.20;99.90
16976;DHT22;8604;48.148;-1.786;2024-02-23T09:33:08;8.20;99.90
16976;DHT22;8604;48.148;-1.786;2024-02-23T09:35:38;8.20;99.90
16976;DHT22;8604;48.148;-1.786;2024-02-23T09:38:06;8.20;99.90
16976;DHT22;8604;48.148;-1.786;2024-02-23T09:40:35;8.20;99.90
16976;DHT22;8604;48.148;-1.786;2024-02-23T09:43:08;8.10;99.90
16976;DHT22;8604;48.148;-1.786;2024-02-23T09:45:38;8.10;99.90
16976;DHT22;8604;48.148;-1.786;2024-02-23T09:48:07;8.20;99.90
16976;DHT22;8604;48.148;-1.786;2024-02-23T09:50:39;8.20;99.90
16976;DHT22;8604;48.148;-1.786;2024-02-23T09:53:11;8.20;99.90
16976;DHT22;8604;48.148;-1.786;2024-02-23T09:55:42;8.20;99.90
16976;DHT22;8604;48.148;-1.786;2024-02-23T09:58:13;8.20;99.90
16976;DHT22;8604;48.148;-1.786;2024-02-23T10:00:44;8.20;99.90
16976;DHT22;8604;48.148;-1.786;2024-02-23T10:03:13;8.20;99.90
16976;DHT22;8604;48.148;-1.786;2024-02-23T10:05:42;8.20;99.90
16976;DHT22;8604;48.148;-1.786;2024-02-23T10:08:13;8.20;99.90
16976;DHT22;8604;48.148;-1.786;2024-02-23T10:10:41;8.10;99.90
16976;DHT22;8604;48.148;-1.786;2024-02-23T10:13:10;8.10;99.90
16976;DHT22;8604;48.148;-1.786;2024-02-23T10:15:38;8.20;99.90
16976;DHT22;8604;48.148;-1.786;2024-02-23T10:18:26;8.10;99.90
16976;DHT22;8604;48.148;-1.786;2024-02-23T10:20:56;8.10;99.90
16976;DHT22;8604;48.148;-1.786;2024-02-23T10:23:25;8.20;99.90
16976;DHT22;8604;48.148;-1.786;2024-02-23T10:25:53;8.20;99.90
16976;DHT22;8604;48.148;-1.786;2024-02-23T10:28:22;8.20;99.90
16976;DHT22;8604;48.148;-1.786;2024-02-23T10:30:50;8.20;99.90
16976;DHT22;8604;48.148;-1.786;2024-02-23T10:33:22;8.20;99.90
16976;DHT22;8604;48.148;-1.786;2024-02-23T10:35:54;8.20;99.90
16976;DHT22;8604;48.148;-1.786;2024-02-23T10:38:26;8.30;99.90
16976;DHT22;8604;48.148;-1.786;2024-02-23T10:40:56;8.40;99.90
16976;DHT22;8604;48.148;-1.786;2024-02-23T10:43:30;8.50;99.90
16976;DHT22;8604;48.148;-1.786;2024-02-23T10:46:01;8.50;99.90
16976;DHT22;8604;48.148;-1.786;2024-02-23T10:48:36;8.60;99.90
16976;DHT22;8604;48.148;-1.786;2024-02-23T10:51:07;8.60;99.90
16976;DHT22;8604;48.148;-1.786;2024-02-23T10:53:38;8.70;99.90
16976;DHT22;8604;48.148;-1.786;2024-02-23T10:56:07;8.70;99.90
16976;DHT22;8604;48.148;-1.786;2024-02-23T10:58:36;8.70;99.90
16976;DHT22;8604;48.148;-1.786;2024-02-23T11:01:07;8.80;99.90
16976;DHT22;8604;48.148;-1.786;2024-02-23T11:03:38;8.80;99.90
16976;DHT22;8604;48.148;-1.786;2024-02-23T11:06:09;8.90;99.90
16976;DHT22;8604;48.148;-1.786;2024-02-23T11:08:39;9.00;99.90
16976;DHT22;8604;48.148;-1.786;2024-02-23T11:11:09;9.10;99.90
16976;DHT22;8604;48.148;-1.786;2024-02-23T11:13:38;9.00;99.90
16976;DHT22;8604;48.148;-1.786;2024-02-23T11:16:08;9.00;99.90
16976;DHT22;8604;48.148;-1.786;2024-02-23T11:18:38;9.10;99.90
16976;DHT22;8604;48.148;-1.786;2024-02-23T11:21:09;9.40;99.90
16976;DHT22;8604;48.148;-1.786;2024-02-23T11:23:42;10.10;99.90
16976;DHT22;8604;48.148;-1.786;2024-02-23T11:26:12;10.80;99.90
16976;DHT22;8604;48.148;-1.786;2024-02-23T11:28:46;11.20;99.90
16976;DHT22;8604;48.148;-1.786;2024-02-23T11:31:16;11.10;99.90
16976;DHT22;8604;48.148;-1.786;2024-02-23T11:33:50;10.90;99.90
16976;DHT22;8604;48.148;-1.786;2024-02-23T11:36:22;10.90;99.90
16976;DHT22;8604;48.148;-1.786;2024-02-23T11:38:56;10.80;99.90
16976;DHT22;8604;48.148;-1.786;2024-02-23T11:41:26;10.70;99.90
16976;DHT22;8604;48.148;-1.786;2024-02-23T11:43:56;10.70;99.90
16976;DHT22;8604;48.148;-1.786;2024-02-23T11:46:25;10.60;99.90
16976;DHT22;8604;48.148;-1.786;2024-02-23T11:48:53;10.60;99.90
16976;DHT22;8604;48.148;-1.786;2024-02-23T11:51:23;10.80;99.90
16976;DHT22;8604;48.148;-1.786;2024-02-23T11:53:56;10.90;99.90
16976;DHT22;8604;48.148;-1.786;2024-02-23T11:56:27;11.00;99.90
16976;DHT22;8604;48.148;-1.786;2024-02-23T11:58:56;11.00;99.90
16976;DHT22;8604;48.148;-1.786;2024-02-23T12:01:25;11.10;99.90
16976;DHT22;8604;48.148;-1.786;2024-02-23T12:03:54;11.40;99.90
16976;DHT22;8604;48.148;-1.786;2024-02-23T12:06:23;11.50;99.90
16976;DHT22;8604;48.148;-1.786;2024-02-23T12:08:51;11.60;99.90
16976;DHT22;8604;48.148;-1.786;2024-02-23T12:11:21;11.60;99.90
16976;DHT22;8604;48.148;-1.786;2024-02-23T12:13:49;11.50;99.90
16976;DHT22;8604;48.148;-1.786;2024-02-23T12:16:20;11.40;99.90
16976;DHT22;8604;48.148;-1.786;2024-02-23T12:18:53;11.40;99.90
16976;DHT22;8604;48.148;-1.786;2024-02-23T12:21:24;11.40;99.90
16976;DHT22;8604;48.148;-1.786;2024-02-23T12:23:53;11.40;99.90
16976;DHT22;8604;48.148;-1.786;2024-02-23T12:26:22;11.50;99.90
16976;DHT22;8604;48.148;-1.786;2024-02-23T12:28:51;11.40;99.90
16976;DHT22;8604;48.148;-1.786;2024-02-23T12:31:24;11.30;99.90
16976;DHT22;8604;48.148;-1.786;2024-02-23T12:33:53;11.40;99.90
16976;DHT22;8604;48.148;-1.786;2024-02-23T12:36:23;11.40;99.90
16976;DHT22;8604;48.148;-1.786;2024-02-23T12:38:51;11.50;99.90
16976;DHT22;8604;48.148;-1.786;2024-02-23T12:41:19;11.50;99.90
16976;DHT22;8604;48.148;-1.786;2024-02-23T12:43:49;11.70;99.90
16976;DHT22;8604;48.148;-1.786;2024-02-23T12:46:21;11.70;99.90
16976;DHT22;8604;48.148;-1.786;2024-02-23T12:48:50;11.70;99.90
16976;DHT22;8604;48.148;-1.786;2024-02-23T12:51:19;11.60;99.90
16976;DHT22;8604;48.148;-1.786;2024-02-23T12:53:52;11.60;99.90
16976;DHT22;8604;48.148;-1.786;2024-02-23T12:56:21;11.60;99.90
16976;DHT22;8604;48.148;-1.786;2024-02-23T12:58:51;11.70;99.90
16976;DHT22;8604;48.148;-1.786;2024-02-23T13:01:21;11.80;99.90
16976;DHT22;8604;48.148;-1.786;2024-02-23T13:03:49;11.90;99.90
16976;DHT22;8604;48.148;-1.786;2024-02-23T13:06:17;12.00;99.90
16976;DHT22;8604;48.148;-1.786;2024-02-23T13:08:46;12.10;99.90
16976;DHT22;8604;48.148;-1.786;2024-02-23T13:11:14;12.20;99.90
16976;DHT22;8604;48.148;-1.786;2024-02-23T13:13:42;12.10;99.90
16976;DHT22;8604;48.148;-1.786;2024-02-23T13:16:12;12.10;99.90
16976;DHT22;8604;48.148;-1.786;2024-02-23T13:18:42;12.00;99.90
16976;DHT22;8604;48.148;-1.786;2024-02-23T13:21:11;11.90;99.90
16976;DHT22;8604;48.148;-1.786;2024-02-23T13:23:39;11.90;99.90
16976;DHT22;8604;48.148;-1.786;2024-02-23T13:26:09;11.70;99.90
16976;DHT22;8604;48.148;-1.786;2024-02-23T13:28:41;11.70;99.90
16976;DHT22;8604;48.148;-1.786;2024-02-23T13:31:09;11.60;99.90
16976;DHT22;8604;48.148;-1.786;2024-02-23T13:33:39;11.50;99.90
16976;DHT22;8604;48.148;-1.786;2024-02-23T13:36:08;11.30;99.90
16976;DHT22;8604;48.148;-1.786;2024-02-23T13:38:37;11.10;99.90
16976;DHT22;8604;48.148;-1.786;2024-02-23T13:41:07;11.00;99.90
16976;DHT22;8604;48.148;-1.786;2024-02-23T13:43:35;10.90;99.90
16976;DHT22;8604;48.148;-1.786;2024-02-23T13:46:04;10.80;99.90
16976;DHT22;8604;48.148;-1.786;2024-02-23T13:48:33;10.70;99.90
16976;DHT22;8604;48.148;-1.786;2024-02-23T13:51:03;10.60;99.90
16976;DHT22;8604;48.148;-1.786;2024-02-23T13:53:32;10.40;99.90
16976;DHT22;8604;48.148;-1.786;2024-02-23T13:56:01;10.40;99.90
16976;DHT22;8604;48.148;-1.786;2024-02-23T13:58:29;10.30;99.90
16976;DHT22;8604;48.148;-1.786;2024-02-23T14:00:58;10.20;99.90
16976;DHT22;8604;48.148;-1.786;2024-02-23T14:03:26;10.10;99.90
16976;DHT22;8604;48.148;-1.786;2024-02-23T14:05:54;10.00;99.90
16976;DHT22;8604;48.148;-1.786;2024-02-23T14:08:24;9.90;99.90
16976;DHT22;8604;48.148;-1.786;2024-02-23T14:10:52;9.90;99.90
16976;DHT22;8604;48.148;-1.786;2024-02-23T14:13:21;9.70;99.90
16976;DHT22;8604;48.148;-1.786;2024-02-23T14:15:50;9.60;99.90
16976;DHT22;8604;48.148;-1.786;2024-02-23T14:18:18;9.50;99.90
16976;DHT22;8604;48.148;-1.786;2024-02-23T14:20:47;9.30;99.90
16976;DHT22;8604;48.148;-1.786;2024-02-23T14:23:15;9.20;99.90
16976;DHT22;8604;48.148;-1.786;2024-02-23T14:25:45;9.10;99.90
16976;DHT22;8604;48.148;-1.786;2024-02-23T14:28:14;9.00;99.90
16976;DHT22;8604;48.148;-1.786;2024-02-23T14:30:42;9.00;99.90
16976;DHT22;8604;48.148;-1.786;2024-02-23T14:33:10;8.90;99.90
16976;DHT22;8604;48.148;-1.786;2024-02-23T14:35:39;9.00;99.90
16976;DHT22;8604;48.148;-1.786;2024-02-23T14:38:07;9.10;99.90
16976;DHT22;8604;48.148;-1.786;2024-02-23T14:40:36;9.20;99.90
16976;DHT22;8604;48.148;-1.786;2024-02-23T14:43:06;9.30;99.90
16976;DHT22;8604;48.148;-1.786;2024-02-23T14:45:35;9.30;99.90
16976;DHT22;8604;48.148;-1.786;2024-02-23T14:48:04;9.30;99.90
16976;DHT22;8604;48.148;-1.786;2024-02-23T14:50:33;9.30;99.90
16976;DHT22;8604;48.148;-1.786;2024-02-23T14:53:02;9.30;99.90
16976;DHT22;8604;48.148;-1.786;2024-02-23T14:55:30;9.20;99.90
16976;DHT22;8604;48.148;-1.786;2024-02-23T14:57:59;9.20;99.90
16976;DHT22;8604;48.148;-1.786;2024-02-23T15:00:28;9.20;99.90
16976;DHT22;8604;48.148;-1.786;2024-02-23T15:02:57;9.20;99.90
16976;DHT22;8604;48.148;-1.786;2024-02-23T15:05:27;9.20;99.90
16976;DHT22;8604;48.148;-1.786;2024-02-23T15:07:55;9.20;99.90
16976;DHT22;8604;48.148;-1.786;2024-02-23T15:10:24;9.10;99.90
16976;DHT22;8604;48.148;-1.786;2024-02-23T15:12:52;8.90;99.90
16976;DHT22;8604;48.148;-1.786;2024-02-23T15:15:20;8.80;99.90
16976;DHT22;8604;48.148;-1.786;2024-02-23T15:17:50;8.50;99.90
16976;DHT22;8604;48.148;-1.786;2024-02-23T15:20:20;8.40;99.90
16976;DHT22;8604;48.148;-1.786;2024-02-23T15:22:48;8.30;99.90
16976;DHT22;8604;48.148;-1.786;2024-02-23T15:25:17;8.10;99.90
16976;DHT22;8604;48.148;-1.786;2024-02-23T15:27:45;7.90;99.90
16976;DHT22;8604;48.148;-1.786;2024-02-23T15:30:15;7.70;99.90
16976;DHT22;8604;48.148;-1.786;2024-02-23T15:32:44;7.30;99.90
16976;DHT22;8604;48.148;-1.786;2024-02-23T15:35:14;7.00;99.90
16976;DHT22;8604;48.148;-1.786;2024-02-23T15:37:43;6.90;99.90
16976;DHT22;8604;48.148;-1.786;2024-02-23T15:40:12;6.70;99.90
16976;DHT22;8604;48.148;-1.786;2024-02-23T15:42:42;6.60;99.90
16976;DHT22;8604;48.148;-1.786;2024-02-23T15:45:10;6.70;99.90
16976;DHT22;8604;48.148;-1.786;2024-02-23T15:47:39;6.70;99.90
16976;DHT22;8604;48.148;-1.786;2024-02-23T15:50:07;6.70;99.90
16976;DHT22;8604;48.148;-1.786;2024-02-23T15:52:57;6.80;99.90
16976;DHT22;8604;48.148;-1.786;2024-02-23T15:55:26;6.80;99.90